sensor_id;sensor_type;location;lat;lon;timestamp;P1;durP1;ratioP1;P2;durP2;ratioP2
44670;SDS011;48397;53.016;-2.260;2023-06-26T00:00:02;4.45;;;1.58;;
44670;SDS011;48397;53.016;-2.260;2023-06-26T00:02:32;4.95;;;2.05;;
44670;SDS011;48397;53.016;-2.260;2023-06-26T00:05:00;8.45;;;1.92;;
44670;SDS011;48397;53.016;-2.260;2023-06-26T00:07:31;7.60;;;1.80;;
44670;SDS011;48397;53.016;-2.260;2023-06-26T00:10:01;5.32;;;1.95;;
44670;SDS011;48397;53.016;-2.260;2023-06-26T00:12:30;5.80;;;2.00;;
44670;SDS011;48397;53.016;-2.260;2023-06-26T00:14:58;3.85;;;1.63;;
44670;SDS011;48397;53.016;-2.260;2023-06-26T00:17:27;8.13;;;2.40;;
44670;SDS011;48397;53.016;-2.260;2023-06-26T00:19:55;7.75;;;2.42;;
44670;SDS011;48397;53.016;-2.260;2023-06-26T00:27:19;6.22;;;2.05;;
44670;SDS011;48397;53.016;-2.260;2023-06-26T00:32:16;4.32;;;1.90;;
44670;SDS011;48397;53.016;-2.260;2023-06-26T00:37:15;4.18;;;2.08;;
44670;SDS011;48397;53.016;-2.260;2023-06-26T00:39:43;7.22;;;2.35;;
44670;SDS011;48397;53.016;-2.260;2023-06-26T00:42:11;4.88;;;2.22;;
44670;SDS011;48397;53.016;-2.260;2023-06-26T00:44:39;5.93;;;2.65;;
44670;SDS011;48397;53.016;-2.260;2023-06-26T00:47:06;7.22;;;2.55;;
44670;SDS011;48397;53.016;-2.260;2023-06-26T00:49:35;5.15;;;2.58;;
44670;SDS011;48397;53.016;-2.260;2023-06-26T00:52:03;9.02;;;2.80;;
44670;SDS011;48397;53.016;-2.260;2023-06-26T00:54:31;5.38;;;2.63;;
44670;SDS011;48397;53.016;-2.260;2023-06-26T00:56:59;7.47;;;3.00;;
44670;SDS011;48397;53.016;-2.260;2023-06-26T00:59:27;9.98;;;2.40;;
44670;SDS011;48397;53.016;-2.260;2023-06-26T01:01:55;7.05;;;3.05;;
44670;SDS011;48397;53.016;-2.260;2023-06-26T01:04:23;5.60;;;2.65;;
44670;SDS011;48397;53.016;-2.260;2023-06-26T01:06:54;10.85;;;2.60;;
44670;SDS011;48397;53.016;-2.260;2023-06-26T01:09:24;6.65;;;2.42;;
44670;SDS011;48397;53.016;-2.260;2023-06-26T01:11:53;8.18;;;2.67;;
44670;SDS011;48397;53.016;-2.260;2023-06-26T01:14:21;5.43;;;2.47;;
44670;SDS011;48397;53.016;-2.260;2023-06-26T01:16:51;8.13;;;2.95;;
44670;SDS011;48397;53.016;-2.260;2023-06-26T01:21:58;9.68;;;2.80;;
44670;SDS011;48397;53.016;-2.260;2023-06-26T01:27:38;8.52;;;2.80;;
44670;SDS011;48397;53.016;-2.260;2023-06-26T01:30:07;6.88;;;2.92;;
44670;SDS011;48397;53.016;-2.260;2023-06-26T01:32:35;9.60;;;3.65;;
44670;SDS011;48397;53.016;-2.260;2023-06-26T01:35:05;12.18;;;3.30;;
44670;SDS011;48397;53.016;-2.260;2023-06-26T01:37:35;12.43;;;3.15;;
44670;SDS011;48397;53.016;-2.260;2023-06-26T01:40:03;7.35;;;2.90;;
44670;SDS011;48397;53.016;-2.260;2023-06-26T01:42:33;10.05;;;3.03;;
44670;SDS011;48397;53.016;-2.260;2023-06-26T01:45:07;9.60;;;3.08;;
44670;SDS011;48397;53.016;-2.260;2023-06-26T01:47:44;6.97;;;2.33;;
44670;SDS011;48397;53.016;-2.260;2023-06-26T01:50:18;7.28;;;2.65;;
44670;SDS011;48397;53.016;-2.260;2023-06-26T01:52:58;4.18;;;2.40;;
44670;SDS011;48397;53.016;-2.260;2023-06-26T01:55:36;4.95;;;2.60;;
44670;SDS011;48397;53.016;-2.260;2023-06-26T01:58:10;7.88;;;2.97;;
44670;SDS011;48397;53.016;-2.260;2023-06-26T02:00:40;5.70;;;2.78;;
44670;SDS011;48397;53.016;-2.260;2023-06-26T02:03:09;8.38;;;2.92;;
44670;SDS011;48397;53.016;-2.260;2023-06-26T02:05:38;6.78;;;2.97;;
44670;SDS011;48397;53.016;-2.260;2023-06-26T02:08:08;9.57;;;2.88;;
44670;SDS011;48397;53.016;-2.260;2023-06-26T02:10:36;8.00;;;2.75;;
44670;SDS011;48397;53.016;-2.260;2023-06-26T02:13:04;6.30;;;2.92;;
44670;SDS011;48397;53.016;-2.260;2023-06-26T02:15:32;5.22;;;2.35;;
44670;SDS011;48397;53.016;-2.260;2023-06-26T02:17:59;7.43;;;2.25;;
44670;SDS011;48397;53.016;-2.260;2023-06-26T02:22:55;5.93;;;2.30;;
44670;SDS011;48397;53.016;-2.260;2023-06-26T02:25:23;6.28;;;2.25;;
44670;SDS011;48397;53.016;-2.260;2023-06-26T02:27:51;4.15;;;2.53;;
44670;SDS011;48397;53.016;-2.260;2023-06-26T02:30:19;7.80;;;2.70;;
44670;SDS011;48397;53.016;-2.260;2023-06-26T02:32:47;5.22;;;2.55;;
44670;SDS011;48397;53.016;-2.260;2023-06-26T02:35:18;4.60;;;2.13;;
44670;SDS011;48397;53.016;-2.260;2023-06-26T02:40:13;7.47;;;2.05;;
44670;SDS011;48397;53.016;-2.260;2023-06-26T02:42:41;3.78;;;2.00;;
44670;SDS011;48397;53.016;-2.260;2023-06-26T02:45:09;6.13;;;2.20;;
44670;SDS011;48397;53.016;-2.260;2023-06-26T02:47:37;9.98;;;2.22;;
44670;SDS011;48397;53.016;-2.260;2023-06-26T02:50:09;5.85;;;2.40;;
44670;SDS011;48397;53.016;-2.260;2023-06-26T02:52:55;6.68;;;2.22;;
44670;SDS011;48397;53.016;-2.260;2023-06-26T02:57:52;4.50;;;2.38;;
44670;SDS011;48397;53.016;-2.260;2023-06-26T03:00:22;6.32;;;2.17;;
44670;SDS011;48397;53.016;-2.260;2023-06-26T03:02:52;5.03;;;2.28;;
44670;SDS011;48397;53.016;-2.260;2023-06-26T03:05:22;5.20;;;1.92;;
44670;SDS011;48397;53.016;-2.260;2023-06-26T03:07:52;6.30;;;2.20;;
44670;SDS011;48397;53.016;-2.260;2023-06-26T03:10:19;4.97;;;2.60;;
44670;SDS011;48397;53.016;-2.260;2023-06-26T03:15:17;5.53;;;2.08;;
44670;SDS011;48397;53.016;-2.260;2023-06-26T03:17:46;5.20;;;2.20;;
44670;SDS011;48397;53.016;-2.260;2023-06-26T03:20:21;7.43;;;1.95;;
44670;SDS011;48397;53.016;-2.260;2023-06-26T03:22:53;6.25;;;1.65;;
44670;SDS011;48397;53.016;-2.260;2023-06-26T03:25:22;8.80;;;2.22;;
44670;SDS011;48397;53.016;-2.260;2023-06-26T03:27:57;3.95;;;1.98;;
44670;SDS011;48397;53.016;-2.260;2023-06-26T03:30:27;5.30;;;1.92;;
44670;SDS011;48397;53.016;-2.260;2023-06-26T03:32:57;3.60;;;1.90;;
44670;SDS011;48397;53.016;-2.260;2023-06-26T03:35:25;8.07;;;1.88;;
44670;SDS011;48397;53.016;-2.260;2023-06-26T03:37:52;6.47;;;2.03;;
44670;SDS011;48397;53.016;-2.260;2023-06-26T03:40:20;4.22;;;2.30;;
44670;SDS011;48397;53.016;-2.260;2023-06-26T03:42:50;4.53;;;1.83;;
44670;SDS011;48397;53.016;-2.260;2023-06-26T03:45:18;4.47;;;1.67;;
44670;SDS011;48397;53.016;-2.260;2023-06-26T03:47:48;5.47;;;2.13;;
44670;SDS011;48397;53.016;-2.260;2023-06-26T03:50:16;4.57;;;2.17;;
44670;SDS011;48397;53.016;-2.260;2023-06-26T03:52:44;5.50;;;2.20;;
44670;SDS011;48397;53.016;-2.260;2023-06-26T03:55:13;4.57;;;2.58;;
44670;SDS011;48397;53.016;-2.260;2023-06-26T03:57:45;6.13;;;2.53;;
44670;SDS011;48397;53.016;-2.260;2023-06-26T04:00:13;4.38;;;2.00;;
44670;SDS011;48397;53.016;-2.260;2023-06-26T04:02:41;6.57;;;2.63;;
44670;SDS011;48397;53.016;-2.260;2023-06-26T04:05:11;3.33;;;1.80;;
44670;SDS011;48397;53.016;-2.260;2023-06-26T04:07:38;5.07;;;2.00;;
44670;SDS011;48397;53.016;-2.260;2023-06-26T04:10:06;3.22;;;1.85;;
44670;SDS011;48397;53.016;-2.260;2023-06-26T04:12:35;4.30;;;1.80;;
44670;SDS011;48397;53.016;-2.260;2023-06-26T04:15:02;4.80;;;2.00;;
44670;SDS011;48397;53.016;-2.260;2023-06-26T04:19:58;3.22;;;1.80;;
44670;SDS011;48397;53.016;-2.260;2023-06-26T04:22:26;6.40;;;2.28;;
44670;SDS011;48397;53.016;-2.260;2023-06-26T04:24:53;4.25;;;1.77;;
44670;SDS011;48397;53.016;-2.260;2023-06-26T04:27:22;7.40;;;2.28;;
44670;SDS011;48397;53.016;-2.260;2023-06-26T04:29:49;5.10;;;2.10;;
44670;SDS011;48397;53.016;-2.260;2023-06-26T04:32:17;3.70;;;1.65;;
44670;SDS011;48397;53.016;-2.260;2023-06-26T04:34:45;3.95;;;2.22;;
44670;SDS011;48397;53.016;-2.260;2023-06-26T04:37:15;7.05;;;2.25;;
44670;SDS011;48397;53.016;-2.260;2023-06-26T04:39:44;3.78;;;2.10;;
44670;SDS011;48397;53.016;-2.260;2023-06-26T04:42:11;6.55;;;2.35;;
44670;SDS011;48397;53.016;-2.260;2023-06-26T04:44:39;4.25;;;2.03;;
44670;SDS011;48397;53.016;-2.260;2023-06-26T04:47:08;6.28;;;1.73;;
44670;SDS011;48397;53.016;-2.260;2023-06-26T04:49:38;4.85;;;1.60;;
44670;SDS011;48397;53.016;-2.260;2023-06-26T04:52:05;2.70;;;1.52;;
44670;SDS011;48397;53.016;-2.260;2023-06-26T04:57:01;3.30;;;1.73;;
44670;SDS011;48397;53.016;-2.260;2023-06-26T04:59:28;4.57;;;1.42;;
44670;SDS011;48397;53.016;-2.260;2023-06-26T05:01:56;4.68;;;2.00;;
44670;SDS011;48397;53.016;-2.260;2023-06-26T05:04:24;6.15;;;1.70;;
44670;SDS011;48397;53.016;-2.260;2023-06-26T05:06:52;5.05;;;1.70;;
44670;SDS011;48397;53.016;-2.260;2023-06-26T05:09:21;5.30;;;1.77;;
44670;SDS011;48397;53.016;-2.260;2023-06-26T05:11:49;5.57;;;2.05;;
44670;SDS011;48397;53.016;-2.260;2023-06-26T05:14:16;5.13;;;1.92;;
44670;SDS011;48397;53.016;-2.260;2023-06-26T05:16:44;5.30;;;2.22;;
44670;SDS011;48397;53.016;-2.260;2023-06-26T05:19:12;4.15;;;1.85;;
44670;SDS011;48397;53.016;-2.260;2023-06-26T05:21:40;5.70;;;1.80;;
44670;SDS011;48397;53.016;-2.260;2023-06-26T05:24:09;5.22;;;1.77;;
44670;SDS011;48397;53.016;-2.260;2023-06-26T05:26:40;5.93;;;2.28;;
44670;SDS011;48397;53.016;-2.260;2023-06-26T05:29:08;4.03;;;1.67;;
44670;SDS011;48397;53.016;-2.260;2023-06-26T05:31:36;4.25;;;2.10;;
44670;SDS011;48397;53.016;-2.260;2023-06-26T05:34:09;4.93;;;2.20;;
44670;SDS011;48397;53.016;-2.260;2023-06-26T05:36:39;5.65;;;1.90;;
44670;SDS011;48397;53.016;-2.260;2023-06-26T05:39:09;3.80;;;2.08;;
44670;SDS011;48397;53.016;-2.260;2023-06-26T05:46:32;7.78;;;2.38;;
44670;SDS011;48397;53.016;-2.260;2023-06-26T05:49:00;5.00;;;2.10;;
44670;SDS011;48397;53.016;-2.260;2023-06-26T05:51:29;4.07;;;1.77;;
44670;SDS011;48397;53.016;-2.260;2023-06-26T05:56:25;4.88;;;2.08;;
44670;SDS011;48397;53.016;-2.260;2023-06-26T05:58:55;4.63;;;2.03;;
44670;SDS011;48397;53.016;-2.260;2023-06-26T06:01:23;8.73;;;2.40;;
44670;SDS011;48397;53.016;-2.260;2023-06-26T06:06:19;6.80;;;2.28;;
44670;SDS011;48397;53.016;-2.260;2023-06-26T06:08:46;3.80;;;1.88;;
44670;SDS011;48397;53.016;-2.260;2023-06-26T06:13:39;8.73;;;2.95;;
44670;SDS011;48397;53.016;-2.260;2023-06-26T06:18:35;5.90;;;2.00;;
44670;SDS011;48397;53.016;-2.260;2023-06-26T06:21:03;6.43;;;2.17;;
44670;SDS011;48397;53.016;-2.260;2023-06-26T06:23:30;3.95;;;1.63;;
44670;SDS011;48397;53.016;-2.260;2023-06-26T06:25:58;6.57;;;1.98;;
44670;SDS011;48397;53.016;-2.260;2023-06-26T06:28:26;5.45;;;2.20;;
44670;SDS011;48397;53.016;-2.260;2023-06-26T06:30:53;8.50;;;2.40;;
44670;SDS011;48397;53.016;-2.260;2023-06-26T06:33:21;6.15;;;2.17;;
44670;SDS011;48397;53.016;-2.260;2023-06-26T06:35:49;5.75;;;2.33;;
44670;SDS011;48397;53.016;-2.260;2023-06-26T06:40:44;6.03;;;2.25;;
44670;SDS011;48397;53.016;-2.260;2023-06-26T06:43:12;7.32;;;2.25;;
44670;SDS011;48397;53.016;-2.260;2023-06-26T06:45:40;4.90;;;2.05;;
44670;SDS011;48397;53.016;-2.260;2023-06-26T06:48:07;8.35;;;2.25;;
44670;SDS011;48397;53.016;-2.260;2023-06-26T06:53:03;5.75;;;2.03;;
44670;SDS011;48397;53.016;-2.260;2023-06-26T06:55:31;6.22;;;2.40;;
44670;SDS011;48397;53.016;-2.260;2023-06-26T06:57:59;4.97;;;2.05;;
44670;SDS011;48397;53.016;-2.260;2023-06-26T07:00:31;6.28;;;2.20;;
44670;SDS011;48397;53.016;-2.260;2023-06-26T07:02:58;6.28;;;1.95;;
44670;SDS011;48397;53.016;-2.260;2023-06-26T07:05:27;6.60;;;1.35;;
44670;SDS011;48397;53.016;-2.260;2023-06-26T07:07:55;3.92;;;1.63;;
44670;SDS011;48397;53.016;-2.260;2023-06-26T07:10:26;7.97;;;1.83;;
44670;SDS011;48397;53.016;-2.260;2023-06-26T07:12:53;6.85;;;2.08;;
44670;SDS011;48397;53.016;-2.260;2023-06-26T07:15:21;6.35;;;2.15;;
44670;SDS011;48397;53.016;-2.260;2023-06-26T07:17:51;7.25;;;2.05;;
44670;SDS011;48397;53.016;-2.260;2023-06-26T07:22:48;7.97;;;1.80;;
44670;SDS011;48397;53.016;-2.260;2023-06-26T07:25:16;5.78;;;1.80;;
44670;SDS011;48397;53.016;-2.260;2023-06-26T07:27:43;7.20;;;2.22;;
44670;SDS011;48397;53.016;-2.260;2023-06-26T07:30:12;5.57;;;1.70;;
44670;SDS011;48397;53.016;-2.260;2023-06-26T07:35:09;10.80;;;2.00;;
44670;SDS011;48397;53.016;-2.260;2023-06-26T07:37:37;5.72;;;2.05;;
44670;SDS011;48397;53.016;-2.260;2023-06-26T07:40:04;5.55;;;2.15;;
44670;SDS011;48397;53.016;-2.260;2023-06-26T07:42:33;7.45;;;2.10;;
44670;SDS011;48397;53.016;-2.260;2023-06-26T07:45:02;11.30;;;1.90;;
44670;SDS011;48397;53.016;-2.260;2023-06-26T07:47:37;3.83;;;1.13;;
44670;SDS011;48397;53.016;-2.260;2023-06-26T07:50:06;2.90;;;1.27;;
44670;SDS011;48397;53.016;-2.260;2023-06-26T07:52:34;4.03;;;1.67;;
44670;SDS011;48397;53.016;-2.260;2023-06-26T07:55:02;5.30;;;1.63;;
44670;SDS011;48397;53.016;-2.260;2023-06-26T07:57:30;9.52;;;2.05;;
44670;SDS011;48397;53.016;-2.260;2023-06-26T07:59:59;7.60;;;1.83;;
44670;SDS011;48397;53.016;-2.260;2023-06-26T08:02:27;5.25;;;1.50;;
44670;SDS011;48397;53.016;-2.260;2023-06-26T08:04:55;2.58;;;1.55;;
44670;SDS011;48397;53.016;-2.260;2023-06-26T08:09:50;2.45;;;1.30;;
44670;SDS011;48397;53.016;-2.260;2023-06-26T08:14:45;6.28;;;1.30;;
44670;SDS011;48397;53.016;-2.260;2023-06-26T08:17:13;14.80;;;2.42;;
44670;SDS011;48397;53.016;-2.260;2023-06-26T08:19:41;6.82;;;1.90;;
44670;SDS011;48397;53.016;-2.260;2023-06-26T08:22:09;7.25;;;2.92;;
44670;SDS011;48397;53.016;-2.260;2023-06-26T08:24:36;5.97;;;1.80;;
44670;SDS011;48397;53.016;-2.260;2023-06-26T08:27:04;8.13;;;1.58;;
44670;SDS011;48397;53.016;-2.260;2023-06-26T08:29:34;6.32;;;1.67;;
44670;SDS011;48397;53.016;-2.260;2023-06-26T08:32:02;5.82;;;2.03;;
44670;SDS011;48397;53.016;-2.260;2023-06-26T08:34:30;7.82;;;1.73;;
44670;SDS011;48397;53.016;-2.260;2023-06-26T08:36:58;7.55;;;1.63;;
44670;SDS011;48397;53.016;-2.260;2023-06-26T08:39:26;9.15;;;1.73;;
44670;SDS011;48397;53.016;-2.260;2023-06-26T08:41:55;3.25;;;1.55;;
44670;SDS011;48397;53.016;-2.260;2023-06-26T08:44:23;4.20;;;1.17;;
44670;SDS011;48397;53.016;-2.260;2023-06-26T08:46:52;2.78;;;1.23;;
44670;SDS011;48397;53.016;-2.260;2023-06-26T08:52:29;3.42;;;1.35;;
44670;SDS011;48397;53.016;-2.260;2023-06-26T08:55:02;3.50;;;1.10;;
44670;SDS011;48397;53.016;-2.260;2023-06-26T08:57:33;7.25;;;1.48;;
44670;SDS011;48397;53.016;-2.260;2023-06-26T09:00:02;4.00;;;1.50;;
44670;SDS011;48397;53.016;-2.260;2023-06-26T09:02:31;6.00;;;1.55;;
44670;SDS011;48397;53.016;-2.260;2023-06-26T09:04:59;5.20;;;1.40;;
44670;SDS011;48397;53.016;-2.260;2023-06-26T09:07:27;6.32;;;1.48;;
44670;SDS011;48397;53.016;-2.260;2023-06-26T09:09:56;7.25;;;1.63;;
44670;SDS011;48397;53.016;-2.260;2023-06-26T09:12:23;5.10;;;2.00;;
44670;SDS011;48397;53.016;-2.260;2023-06-26T09:14:55;6.03;;;1.73;;
44670;SDS011;48397;53.016;-2.260;2023-06-26T09:17:24;4.13;;;1.52;;
44670;SDS011;48397;53.016;-2.260;2023-06-26T09:19:56;8.77;;;2.30;;
44670;SDS011;48397;53.016;-2.260;2023-06-26T09:22:23;6.63;;;1.65;;
44670;SDS011;48397;53.016;-2.260;2023-06-26T09:24:52;3.95;;;1.20;;
44670;SDS011;48397;53.016;-2.260;2023-06-26T09:27:20;12.02;;;1.63;;
44670;SDS011;48397;53.016;-2.260;2023-06-26T09:29:48;7.35;;;1.50;;
44670;SDS011;48397;53.016;-2.260;2023-06-26T09:32:17;14.07;;;2.20;;
44670;SDS011;48397;53.016;-2.260;2023-06-26T09:37:12;9.63;;;1.65;;
44670;SDS011;48397;53.016;-2.260;2023-06-26T09:39:42;13.05;;;2.20;;
44670;SDS011;48397;53.016;-2.260;2023-06-26T09:42:13;9.27;;;1.73;;
44670;SDS011;48397;53.016;-2.260;2023-06-26T09:44:45;5.25;;;1.48;;
44670;SDS011;48397;53.016;-2.260;2023-06-26T09:47:18;7.53;;;1.67;;
44670;SDS011;48397;53.016;-2.260;2023-06-26T09:49:48;4.82;;;1.85;;
44670;SDS011;48397;53.016;-2.260;2023-06-26T09:52:17;6.35;;;1.40;;
44670;SDS011;48397;53.016;-2.260;2023-06-26T09:54:45;18.42;;;2.42;;
44670;SDS011;48397;53.016;-2.260;2023-06-26T09:57:15;20.48;;;2.22;;
44670;SDS011;48397;53.016;-2.260;2023-06-26T09:59:44;11.05;;;1.83;;
44670;SDS011;48397;53.016;-2.260;2023-06-26T10:02:15;4.00;;;1.30;;
44670;SDS011;48397;53.016;-2.260;2023-06-26T10:04:43;12.18;;;1.80;;
44670;SDS011;48397;53.016;-2.260;2023-06-26T10:07:11;4.97;;;0.90;;
44670;SDS011;48397;53.016;-2.260;2023-06-26T10:09:43;10.00;;;1.30;;
44670;SDS011;48397;53.016;-2.260;2023-06-26T10:12:15;12.68;;;1.60;;
44670;SDS011;48397;53.016;-2.260;2023-06-26T10:15:01;10.50;;;1.50;;
44670;SDS011;48397;53.016;-2.260;2023-06-26T10:17:32;19.33;;;1.90;;
44670;SDS011;48397;53.016;-2.260;2023-06-26T10:20:03;7.20;;;1.40;;
44670;SDS011;48397;53.016;-2.260;2023-06-26T10:22:36;8.88;;;1.58;;
44670;SDS011;48397;53.016;-2.260;2023-06-26T10:25:10;5.57;;;1.52;;
44670;SDS011;48397;53.016;-2.260;2023-06-26T10:27:44;2.38;;;0.93;;
44670;SDS011;48397;53.016;-2.260;2023-06-26T10:30:16;4.32;;;1.20;;
44670;SDS011;48397;53.016;-2.260;2023-06-26T10:32:48;7.43;;;1.30;;
44670;SDS011;48397;53.016;-2.260;2023-06-26T10:35:16;5.95;;;1.25;;
44670;SDS011;48397;53.016;-2.260;2023-06-26T10:40:25;3.03;;;1.25;;
44670;SDS011;48397;53.016;-2.260;2023-06-26T10:43:10;4.38;;;0.70;;
44670;SDS011;48397;53.016;-2.260;2023-06-26T10:45:46;3.47;;;1.33;;
44670;SDS011;48397;53.016;-2.260;2023-06-26T10:48:21;8.07;;;1.58;;
44670;SDS011;48397;53.016;-2.260;2023-06-26T10:50:50;3.13;;;1.10;;
44670;SDS011;48397;53.016;-2.260;2023-06-26T10:55:50;6.82;;;1.80;;
44670;SDS011;48397;53.016;-2.260;2023-06-26T11:01:18;2.90;;;1.23;;
44670;SDS011;48397;53.016;-2.260;2023-06-26T11:06:29;2.35;;;1.23;;
44670;SDS011;48397;53.016;-2.260;2023-06-26T11:09:17;1.25;;;0.60;;
44670;SDS011;48397;53.016;-2.260;2023-06-26T11:14:22;16.60;;;1.85;;
44670;SDS011;48397;53.016;-2.260;2023-06-26T11:16:50;3.00;;;1.10;;
44670;SDS011;48397;53.016;-2.260;2023-06-26T11:19:19;5.63;;;1.20;;
44670;SDS011;48397;53.016;-2.260;2023-06-26T11:21:47;8.30;;;1.60;;
44670;SDS011;48397;53.016;-2.260;2023-06-26T11:24:16;3.97;;;1.45;;
44670;SDS011;48397;53.016;-2.260;2023-06-26T11:26:44;9.77;;;1.48;;
44670;SDS011;48397;53.016;-2.260;2023-06-26T11:29:12;1.73;;;0.73;;
44670;SDS011;48397;53.016;-2.260;2023-06-26T11:34:09;7.07;;;1.58;;
44670;SDS011;48397;53.016;-2.260;2023-06-26T11:36:39;4.45;;;1.40;;
44670;SDS011;48397;53.016;-2.260;2023-06-26T11:39:10;4.10;;;1.38;;
44670;SDS011;48397;53.016;-2.260;2023-06-26T11:41:38;9.05;;;1.40;;
44670;SDS011;48397;53.016;-2.260;2023-06-26T11:44:08;4.13;;;1.10;;
44670;SDS011;48397;53.016;-2.260;2023-06-26T11:46:37;13.32;;;1.95;;
44670;SDS011;48397;53.016;-2.260;2023-06-26T11:49:08;12.02;;;1.95;;
44670;SDS011;48397;53.016;-2.260;2023-06-26T11:51:36;10.52;;;1.52;;
44670;SDS011;48397;53.016;-2.260;2023-06-26T11:54:04;6.80;;;1.20;;
44670;SDS011;48397;53.016;-2.260;2023-06-26T11:56:32;4.75;;;0.90;;
44670;SDS011;48397;53.016;-2.260;2023-06-26T12:01:41;5.95;;;1.30;;
44670;SDS011;48397;53.016;-2.260;2023-06-26T12:04:14;13.05;;;1.95;;
44670;SDS011;48397;53.016;-2.260;2023-06-26T12:06:52;12.93;;;1.92;;
44670;SDS011;48397;53.016;-2.260;2023-06-26T12:09:24;5.93;;;1.23;;
44670;SDS011;48397;53.016;-2.260;2023-06-26T12:11:54;3.33;;;1.02;;
44670;SDS011;48397;53.016;-2.260;2023-06-26T12:14:22;8.02;;;1.85;;
44670;SDS011;48397;53.016;-2.260;2023-06-26T12:16:52;12.25;;;1.98;;
44670;SDS011;48397;53.016;-2.260;2023-06-26T12:19:26;9.93;;;1.55;;
44670;SDS011;48397;53.016;-2.260;2023-06-26T12:21:54;5.05;;;1.50;;
44670;SDS011;48397;53.016;-2.260;2023-06-26T12:24:23;39.03;;;4.35;;
44670;SDS011;48397;53.016;-2.260;2023-06-26T12:31:31;4.90;;;1.23;;
44670;SDS011;48397;53.016;-2.260;2023-06-26T12:34:00;8.80;;;1.60;;
44670;SDS011;48397;53.016;-2.260;2023-06-26T12:36:28;12.57;;;1.60;;
44670;SDS011;48397;53.016;-2.260;2023-06-26T12:38:55;5.00;;;1.50;;
44670;SDS011;48397;53.016;-2.260;2023-06-26T12:43:57;9.80;;;1.88;;
44670;SDS011;48397;53.016;-2.260;2023-06-26T12:46:34;16.08;;;2.97;;
44670;SDS011;48397;53.016;-2.260;2023-06-26T12:51:38;0.90;;;0.75;;
44670;SDS011;48397;53.016;-2.260;2023-06-26T12:54:07;2.78;;;0.90;;
44670;SDS011;48397;53.016;-2.260;2023-06-26T12:56:34;4.13;;;1.00;;
44670;SDS011;48397;53.016;-2.260;2023-06-26T12:59:02;14.88;;;1.85;;
44670;SDS011;48397;53.016;-2.260;2023-06-26T13:06:25;3.03;;;1.10;;
44670;SDS011;48397;53.016;-2.260;2023-06-26T13:13:52;1.60;;;0.65;;
44670;SDS011;48397;53.016;-2.260;2023-06-26T13:16:36;4.40;;;0.88;;
44670;SDS011;48397;53.016;-2.260;2023-06-26T13:21:33;6.95;;;1.55;;
44670;SDS011;48397;53.016;-2.260;2023-06-26T13:24:02;2.38;;;0.90;;
44670;SDS011;48397;53.016;-2.260;2023-06-26T13:26:31;2.92;;;0.90;;
44670;SDS011;48397;53.016;-2.260;2023-06-26T13:29:02;2.70;;;1.05;;
44670;SDS011;48397;53.016;-2.260;2023-06-26T13:31:31;3.63;;;1.00;;
44670;SDS011;48397;53.016;-2.260;2023-06-26T13:33:59;5.78;;;1.10;;
44670;SDS011;48397;53.016;-2.260;2023-06-26T13:36:27;5.90;;;1.40;;
44670;SDS011;48397;53.016;-2.260;2023-06-26T13:38:55;10.07;;;1.20;;
44670;SDS011;48397;53.016;-2.260;2023-06-26T13:41:26;4.22;;;0.60;;
44670;SDS011;48397;53.016;-2.260;2023-06-26T13:43:55;8.70;;;1.27;;
44670;SDS011;48397;53.016;-2.260;2023-06-26T13:46:32;5.28;;;0.80;;
44670;SDS011;48397;53.016;-2.260;2023-06-26T13:49:00;4.13;;;0.90;;
44670;SDS011;48397;53.016;-2.260;2023-06-26T13:53:55;11.93;;;1.40;;
44670;SDS011;48397;53.016;-2.260;2023-06-26T13:56:27;3.65;;;0.82;;
44670;SDS011;48397;53.016;-2.260;2023-06-26T13:58:58;3.35;;;0.73;;
44670;SDS011;48397;53.016;-2.260;2023-06-26T14:01:25;14.88;;;2.72;;
44670;SDS011;48397;53.016;-2.260;2023-06-26T14:03:54;6.70;;;1.08;;
44670;SDS011;48397;53.016;-2.260;2023-06-26T14:06:21;3.13;;;0.88;;
44670;SDS011;48397;53.016;-2.260;2023-06-26T14:08:49;4.40;;;0.90;;
44670;SDS011;48397;53.016;-2.260;2023-06-26T14:11:17;34.38;;;2.78;;
44670;SDS011;48397;53.016;-2.260;2023-06-26T14:13:45;5.88;;;1.50;;
44670;SDS011;48397;53.016;-2.260;2023-06-26T14:16:13;6.55;;;1.50;;
44670;SDS011;48397;53.016;-2.260;2023-06-26T14:18:42;5.32;;;1.30;;
44670;SDS011;48397;53.016;-2.260;2023-06-26T14:23:37;12.27;;;1.40;;
44670;SDS011;48397;53.016;-2.260;2023-06-26T14:26:05;3.35;;;1.10;;
44670;SDS011;48397;53.016;-2.260;2023-06-26T14:28:33;5.20;;;1.33;;
44670;SDS011;48397;53.016;-2.260;2023-06-26T14:31:01;3.65;;;0.90;;
44670;SDS011;48397;53.016;-2.260;2023-06-26T14:38:24;43.30;;;4.88;;
44670;SDS011;48397;53.016;-2.260;2023-06-26T14:40:52;12.07;;;1.30;;
44670;SDS011;48397;53.016;-2.260;2023-06-26T14:43:20;11.75;;;1.70;;
44670;SDS011;48397;53.016;-2.260;2023-06-26T14:45:49;6.57;;;1.38;;
44670;SDS011;48397;53.016;-2.260;2023-06-26T14:48:17;1.50;;;0.82;;
44670;SDS011;48397;53.016;-2.260;2023-06-26T14:50:46;5.63;;;0.90;;
44670;SDS011;48397;53.016;-2.260;2023-06-26T14:55:42;2.65;;;1.20;;
44670;SDS011;48397;53.016;-2.260;2023-06-26T14:58:10;2.85;;;1.48;;
44670;SDS011;48397;53.016;-2.260;2023-06-26T15:03:06;7.20;;;1.33;;
44670;SDS011;48397;53.016;-2.260;2023-06-26T15:05:34;4.40;;;1.90;;
44670;SDS011;48397;53.016;-2.260;2023-06-26T15:08:01;3.60;;;1.17;;
44670;SDS011;48397;53.016;-2.260;2023-06-26T15:10:29;2.28;;;1.02;;
44670;SDS011;48397;53.016;-2.260;2023-06-26T15:13:00;2.20;;;0.95;;
44670;SDS011;48397;53.016;-2.260;2023-06-26T15:15:28;2.72;;;0.85;;
44670;SDS011;48397;53.016;-2.260;2023-06-26T15:20:23;2.90;;;0.82;;
44670;SDS011;48397;53.016;-2.260;2023-06-26T15:22:51;2.30;;;0.93;;
44670;SDS011;48397;53.016;-2.260;2023-06-26T15:27:47;5.40;;;1.20;;
44670;SDS011;48397;53.016;-2.260;2023-06-26T15:30:16;4.18;;;1.27;;
44670;SDS011;48397;53.016;-2.260;2023-06-26T15:32:44;4.20;;;1.10;;
44670;SDS011;48397;53.016;-2.260;2023-06-26T15:35:12;4.15;;;1.52;;
44670;SDS011;48397;53.016;-2.260;2023-06-26T15:37:40;3.03;;;1.00;;
44670;SDS011;48397;53.016;-2.260;2023-06-26T15:42:45;4.82;;;1.05;;
44670;SDS011;48397;53.016;-2.260;2023-06-26T15:45:17;5.25;;;1.05;;
44670;SDS011;48397;53.016;-2.260;2023-06-26T15:47:46;16.30;;;1.50;;
44670;SDS011;48397;53.016;-2.260;2023-06-26T15:50:15;3.53;;;1.00;;
44670;SDS011;48397;53.016;-2.260;2023-06-26T15:52:45;5.82;;;1.52;;
44670;SDS011;48397;53.016;-2.260;2023-06-26T15:55:14;3.88;;;1.35;;
44670;SDS011;48397;53.016;-2.260;2023-06-26T15:57:43;4.45;;;1.05;;
44670;SDS011;48397;53.016;-2.260;2023-06-26T16:00:12;2.25;;;0.90;;
44670;SDS011;48397;53.016;-2.260;2023-06-26T16:02:41;3.58;;;1.02;;
44670;SDS011;48397;53.016;-2.260;2023-06-26T16:05:11;3.03;;;0.95;;
44670;SDS011;48397;53.016;-2.260;2023-06-26T16:07:39;5.13;;;1.20;;
44670;SDS011;48397;53.016;-2.260;2023-06-26T16:10:23;5.53;;;1.10;;
44670;SDS011;48397;53.016;-2.260;2023-06-26T16:12:52;5.25;;;1.20;;
44670;SDS011;48397;53.016;-2.260;2023-06-26T16:15:20;2.17;;;0.80;;
44670;SDS011;48397;53.016;-2.260;2023-06-26T16:17:48;3.55;;;1.10;;
44670;SDS011;48397;53.016;-2.260;2023-06-26T16:20:17;1.80;;;0.88;;
44670;SDS011;48397;53.016;-2.260;2023-06-26T16:22:45;3.15;;;1.08;;
44670;SDS011;48397;53.016;-2.260;2023-06-26T16:25:13;1.65;;;0.85;;
44670;SDS011;48397;53.016;-2.260;2023-06-26T16:27:41;2.05;;;0.77;;
44670;SDS011;48397;53.016;-2.260;2023-06-26T16:30:13;2.70;;;0.90;;
44670;SDS011;48397;53.016;-2.260;2023-06-26T16:32:43;3.35;;;0.98;;
44670;SDS011;48397;53.016;-2.260;2023-06-26T16:35:11;1.58;;;0.80;;
44670;SDS011;48397;53.016;-2.260;2023-06-26T16:37:39;3.85;;;1.00;;
44670;SDS011;48397;53.016;-2.260;2023-06-26T16:40:07;3.97;;;1.08;;
44670;SDS011;48397;53.016;-2.260;2023-06-26T16:42:35;4.75;;;1.10;;
44670;SDS011;48397;53.016;-2.260;2023-06-26T16:45:04;3.35;;;0.80;;
44670;SDS011;48397;53.016;-2.260;2023-06-26T16:47:32;5.47;;;1.00;;
44670;SDS011;48397;53.016;-2.260;2023-06-26T16:50:06;2.22;;;0.80;;
44670;SDS011;48397;53.016;-2.260;2023-06-26T16:52:35;2.60;;;1.00;;